createdAt,value
2023-01-10T06:00:19.294Z,100.00
2023-01-10T06:02:46.695Z,100.00
2023-01-10T06:05:13.814Z,100.00
2023-01-10T06:08:04.706Z,100.00
2023-01-10T06:10:44.567Z,100.00
2023-01-10T06:13:11.621Z,100.00
2023-01-10T06:15:43.929Z,100.00
2023-01-10T06:18:26.793Z,100.00
2023-01-10T06:20:53.744Z,100.00
2023-01-10T06:23:23.870Z,100.00
2023-01-10T06:25:50.876Z,100.00
2023-01-10T06:28:30.748Z,100.00
2023-01-10T06:31:00.612Z,100.00
2023-01-10T06:34:07.137Z,100.00
2023-01-10T06:36:33.845Z,100.00
2023-01-10T06:39:00.844Z,100.00
2023-01-10T06:41:27.667Z,100.00
2023-01-10T06:57:09.613Z,100.00
2023-01-10T07:02:54.657Z,100.00
2023-01-10T07:05:40.443Z,100.00
2023-01-10T07:08:28.344Z,100.00
2023-01-10T07:23:50.091Z,100.00
2023-01-10T07:28:59.966Z,100.00
2023-01-10T07:31:10.469Z,100.00
2023-01-10T07:34:20.410Z,100.00
2023-01-10T07:40:11.347Z,100.00
2023-01-10T07:42:39.409Z,100.00
2023-01-10T07:45:16.196Z,100.00
2023-01-10T07:47:43.937Z,100.00
2023-01-10T07:50:25.437Z,100.00
2023-01-10T07:53:41.797Z,100.00
2023-01-10T07:55:55.555Z,100.00
2023-01-10T08:01:34.824Z,100.00
2023-01-10T08:04:32.061Z,100.00
2023-01-10T08:07:45.542Z,100.00
2023-01-10T08:13:26.710Z,100.00
2023-01-10T08:15:54.337Z,100.00
2023-01-10T08:18:23.286Z,100.00
2023-01-10T08:20:53.792Z,100.00
2023-01-10T08:23:22.049Z,100.00
2023-01-10T08:25:51.253Z,100.00
2023-01-10T08:28:18.820Z,100.00
2023-01-10T08:30:46.272Z,100.00
2023-01-10T08:36:42.477Z,100.00
2023-01-10T08:39:17.683Z,100.00
2023-01-10T08:41:47.780Z,100.00
2023-01-10T08:44:28.246Z,100.00
2023-01-10T08:47:21.195Z,100.00
2023-01-10T08:50:07.114Z,100.00
2023-01-10T08:53:39.796Z,100.00
2023-01-10T08:58:32.813Z,100.00
2023-01-10T09:02:46.654Z,100.00
2023-01-10T09:16:50.207Z,100.00
2023-01-10T09:19:28.829Z,100.00
2023-01-10T09:22:11.849Z,100.00
2023-01-10T09:24:48.742Z,100.00
2023-01-10T09:27:16.160Z,100.00
2023-01-10T09:29:54.101Z,100.00
2023-01-10T09:35:46.530Z,100.00
2023-01-10T09:38:15.215Z,100.00
2023-01-10T09:41:07.304Z,100.00
2023-01-10T09:43:55.534Z,100.00
2023-01-10T09:46:34.132Z,100.00
2023-01-10T09:52:29.865Z,100.00
2023-01-10T09:55:19.079Z,100.00
2023-01-10T09:57:47.033Z,100.00
2023-01-10T10:00:19.987Z,100.00
2023-01-10T10:02:51.050Z,100.00
2023-01-10T10:05:34.469Z,100.00
2023-01-10T10:15:12.005Z,100.00
2023-01-10T10:17:53.081Z,100.00
2023-01-10T10:20:45.873Z,100.00
2023-01-10T10:23:24.153Z,100.00
2023-01-10T10:26:00.928Z,100.00
2023-01-10T10:29:03.614Z,100.00
2023-01-10T10:31:49.039Z,100.00
2023-01-10T10:34:25.458Z,100.00
2023-01-10T10:36:57.128Z,100.00
2023-01-10T10:39:37.057Z,100.00
2023-01-10T10:42:06.581Z,100.00
2023-01-10T10:44:39.290Z,100.00
2023-01-10T10:47:14.515Z,100.00
2023-01-10T10:49:45.523Z,100.00
2023-01-10T10:52:23.814Z,100.00
2023-01-10T10:54:51.511Z,100.00
2023-01-10T10:57:21.624Z,100.00
2023-01-10T10:59:49.034Z,100.00
2023-01-10T11:02:24.977Z,100.00
2023-01-10T11:04:55.227Z,100.00
2023-01-10T11:07:25.986Z,100.00
2023-01-10T11:09:54.463Z,100.00
2023-01-10T11:12:30.325Z,100.00
2023-01-10T11:15:30.863Z,100.00
2023-01-10T11:18:06.429Z,100.00
2023-01-10T11:20:35.317Z,100.00
2023-01-10T11:23:03.373Z,100.00
2023-01-10T11:25:30.859Z,100.00
2023-01-10T11:28:05.470Z,100.00
2023-01-10T11:31:25.025Z,100.00
2023-01-10T11:34:26.152Z,100.00
2023-01-10T11:37:05.046Z,100.00
2023-01-10T11:39:36.990Z,100.00
2023-01-10T11:42:45.730Z,100.00
2023-01-10T11:45:26.689Z,100.00
2023-01-10T11:48:03.101Z,100.00
2023-01-10T11:50:52.787Z,100.00
2023-01-10T11:53:42.540Z,100.00
2023-01-10T11:56:33.616Z,100.00
2023-01-10T11:59:15.119Z,100.00
2023-01-10T12:01:47.589Z,100.00
2023-01-10T12:04:16.513Z,100.00
2023-01-10T12:07:09.749Z,100.00
2023-01-10T12:09:41.601Z,100.00
2023-01-10T12:14:51.486Z,100.00
2023-01-10T12:17:41.501Z,100.00
2023-01-10T12:20:14.234Z,100.00
2023-01-10T12:22:45.734Z,100.00
2023-01-10T12:25:20.317Z,100.00
2023-01-10T12:27:53.495Z,100.00
2023-01-10T12:30:31.742Z,100.00
2023-01-10T12:33:02.440Z,100.00
2023-01-10T12:35:39.337Z,100.00
2023-01-10T12:38:19.908Z,100.00
2023-01-10T12:40:53.424Z,100.00
2023-01-10T12:43:26.584Z,100.00
2023-01-10T12:46:21.765Z,100.00
2023-01-10T12:49:08.277Z,100.00
2023-01-10T12:51:37.107Z,100.00
2023-01-10T12:54:13.178Z,100.00
2023-01-10T12:56:49.616Z,100.00
2023-01-10T12:59:36.431Z,100.00
2023-01-10T13:02:16.843Z,100.00
2023-01-10T13:04:45.172Z,100.00
2023-01-10T13:07:14.029Z,100.00
2023-01-10T13:09:43.405Z,100.00
2023-01-10T13:12:15.138Z,100.00
2023-01-10T13:14:48.723Z,100.00
2023-01-10T13:17:27.348Z,100.00
2023-01-10T13:20:28.684Z,100.00
2023-01-10T13:22:57.768Z,100.00
2023-01-10T13:25:28.845Z,100.00
2023-01-10T13:27:57.804Z,100.00
2023-01-10T13:30:32.119Z,100.00
2023-01-10T13:33:05.628Z,100.00
2023-01-10T13:35:41.905Z,100.00
2023-01-10T13:38:19.223Z,100.00
2023-01-10T13:41:03.955Z,100.00
2023-01-10T13:44:04.813Z,100.00
2023-01-10T13:46:45.272Z,98.31
2023-01-10T13:49:41.724Z,93.20
2023-01-10T13:52:29.525Z,97.86
2023-01-10T13:54:57.679Z,100.00
2023-01-10T13:57:54.264Z,98.83
2023-01-10T14:00:41.157Z,89.78
2023-01-10T14:03:08.118Z,89.36
2023-01-10T14:05:35.066Z,89.08
2023-01-10T14:08:02.266Z,89.45
2023-01-10T14:10:32.665Z,92.40
2023-01-10T14:13:03.967Z,92.54
2023-01-10T14:15:37.208Z,90.81
2023-01-10T14:18:19.291Z,91.85
2023-01-10T14:20:57.292Z,85.03
2023-01-10T14:23:31.394Z,89.44
2023-01-10T14:25:58.738Z,87.84
2023-01-10T14:28:28.969Z,85.27
2023-01-10T14:31:06.314Z,85.34
2023-01-10T14:33:37.313Z,86.95
2023-01-10T14:36:09.783Z,85.84
2023-01-10T14:38:39.167Z,84.50
2023-01-10T14:41:16.744Z,83.27
2023-01-10T14:43:54.276Z,79.38
2023-01-10T14:46:29.840Z,85.32
2023-01-10T14:48:56.848Z,82.36
2023-01-10T14:51:27.397Z,80.88
2023-01-10T14:53:59.539Z,77.72
2023-01-10T14:56:30.696Z,77.18
2023-01-10T14:59:24.918Z,74.75
2023-01-10T15:01:58.096Z,78.61
2023-01-10T15:04:27.916Z,79.94
2023-01-10T15:07:11.944Z,76.82
2023-01-10T15:09:48.714Z,78.45
2023-01-10T15:12:18.165Z,74.69
2023-01-10T15:14:48.429Z,73.89
2023-01-10T15:17:20.263Z,72.76
2023-01-10T15:19:52.485Z,73.45
2023-01-10T15:22:28.024Z,75.40
2023-01-10T15:25:01.861Z,73.35
2023-01-10T15:27:31.237Z,75.08
2023-01-10T15:30:18.602Z,75.53
2023-01-10T15:32:49.660Z,75.31
2023-01-10T15:35:27.403Z,74.13
2023-01-10T15:38:04.165Z,74.25
2023-01-10T15:40:37.756Z,74.97
2023-01-10T15:43:24.592Z,74.76
2023-01-10T15:46:06.061Z,76.08
2023-01-10T15:48:34.235Z,75.95
2023-01-10T15:51:03.425Z,75.49
2023-01-10T15:53:57.108Z,74.49
2023-01-10T15:56:28.670Z,76.08
2023-01-10T15:58:57.646Z,76.55
2023-01-10T16:01:29.113Z,77.41
2023-01-10T16:03:58.716Z,74.68
2023-01-10T16:06:29.192Z,76.28
2023-01-10T16:08:58.543Z,76.98
2023-01-10T16:11:34.283Z,77.59
2023-01-10T16:14:01.140Z,77.03
2023-01-10T16:16:33.556Z,78.13
2023-01-10T16:19:02.720Z,77.40
2023-01-10T16:21:36.683Z,79.21
2023-01-10T16:24:05.326Z,79.09
2023-01-10T16:26:33.907Z,78.35
2023-01-10T16:29:00.880Z,75.68
2023-01-10T16:31:38.598Z,77.98
2023-01-10T16:34:07.413Z,75.04
2023-01-10T16:39:56.719Z,78.21
2023-01-10T16:42:23.916Z,77.29
2023-01-10T16:44:50.812Z,76.73
2023-01-10T16:47:20.353Z,74.78
2023-01-10T16:49:55.496Z,75.85
2023-01-10T16:52:31.729Z,77.40
2023-01-10T16:54:59.700Z,75.22
2023-01-10T16:57:26.656Z,76.07
2023-01-10T16:59:53.615Z,78.41
2023-01-10T17:02:22.365Z,78.72
2023-01-10T17:05:01.835Z,78.95
2023-01-10T17:07:41.065Z,77.55
2023-01-10T17:10:20.622Z,80.32
2023-01-10T17:13:08.942Z,80.08
2023-01-10T17:15:36.374Z,74.52
2023-01-10T17:18:15.524Z,76.93
2023-01-10T17:20:51.896Z,78.75
2023-01-10T17:23:30.922Z,77.83
2023-01-10T17:26:03.403Z,77.39
2023-01-10T17:28:33.442Z,77.48
2023-01-10T17:31:00.387Z,75.72
2023-01-10T17:33:29.042Z,77.44
2023-01-10T17:35:57.048Z,76.19
2023-01-10T17:38:26.326Z,74.72
2023-01-10T17:40:53.989Z,73.85
2023-01-10T17:43:21.544Z,76.10
2023-01-10T17:45:50.931Z,75.43
2023-01-10T17:55:14.135Z,73.46
2023-01-10T17:57:42.203Z,74.83
2023-01-10T18:00:11.308Z,73.69
2023-01-10T18:02:39.548Z,74.53
2023-01-10T18:05:13.451Z,72.81
2023-01-10T18:07:40.333Z,70.38
2023-01-10T18:10:08.516Z,71.22
2023-01-10T18:12:38.019Z,72.14
2023-01-10T18:15:08.971Z,71.40
2023-01-10T18:17:36.537Z,72.34
2023-01-10T18:20:03.770Z,72.16
2023-01-10T18:22:30.665Z,70.87
2023-01-10T18:24:59.108Z,70.71
2023-01-10T18:27:27.168Z,70.64
2023-01-10T18:29:56.900Z,68.61
2023-01-10T18:51:05.474Z,70.28
2023-01-10T18:53:32.830Z,70.27
2023-01-10T18:56:02.286Z,71.12
2023-01-10T18:58:34.470Z,72.19
2023-01-10T19:01:07.830Z,71.41
2023-01-10T19:03:47.953Z,72.70
2023-01-10T19:06:21.599Z,70.68
2023-01-10T19:08:53.894Z,72.60
2023-01-10T19:11:21.269Z,71.39
2023-01-10T19:13:50.675Z,71.57
2023-01-10T19:16:20.255Z,70.79
2023-01-10T19:18:50.989Z,74.83
2023-01-10T19:21:18.389Z,73.43
2023-01-10T19:23:47.880Z,75.07
2023-01-10T19:26:15.646Z,77.18
2023-01-10T19:28:44.119Z,76.75
2023-01-10T19:31:15.400Z,76.98
2023-01-10T19:33:42.438Z,76.15
2023-01-10T19:36:13.330Z,76.47
2023-01-10T19:38:41.122Z,76.50
2023-01-10T19:41:08.639Z,76.96
2023-01-10T19:43:36.208Z,76.94
2023-01-10T19:46:06.230Z,75.52
2023-01-10T19:48:33.587Z,75.20
2023-01-10T19:51:05.568Z,73.64
2023-01-10T19:53:36.338Z,76.30
2023-01-10T19:56:07.797Z,74.56
2023-01-10T19:58:40.259Z,73.95
2023-01-10T20:01:09.137Z,74.27
2023-01-10T20:03:36.778Z,72.88
2023-01-10T20:06:07.368Z,72.57
2023-01-10T20:08:36.511Z,74.08
2023-01-10T20:11:04.607Z,74.22
2023-01-10T20:13:33.105Z,71.35
2023-01-10T20:16:00.569Z,73.27
2023-01-10T20:18:27.924Z,73.41
2023-01-10T20:20:55.156Z,75.51
2023-01-10T20:23:22.653Z,73.44
2023-01-10T20:26:02.826Z,74.08
2023-01-10T20:28:32.359Z,72.17
2023-01-10T20:31:00.092Z,72.91
2023-01-10T20:33:27.460Z,73.90
2023-01-10T20:35:55.987Z,76.31
2023-01-10T20:38:27.476Z,74.83
2023-01-10T20:40:58.244Z,75.42
2023-01-10T20:43:26.092Z,77.54
2023-01-10T23:11:03.719Z,84.12
2023-01-10T23:13:38.521Z,87.33
2023-01-10T23:16:07.897Z,88.04
2023-01-10T23:18:35.301Z,88.99
2023-01-10T23:21:03.049Z,87.66
2023-01-10T23:23:29.906Z,86.86
2023-01-10T23:26:02.738Z,91.07
2023-01-10T23:28:33.728Z,95.79
2023-01-10T23:31:00.876Z,99.71
2023-01-10T23:33:28.540Z,96.83
2023-01-10T23:35:55.634Z,97.94
2023-01-10T23:38:22.824Z,99.56
2023-01-10T23:40:50.104Z,96.50
2023-01-10T23:43:18.678Z,97.99
2023-01-10T23:45:45.996Z,100.00
2023-01-10T23:48:13.133Z,97.40
2023-01-10T23:50:40.131Z,97.14
2023-01-10T23:53:07.308Z,96.38
2023-01-10T23:55:34.434Z,100.00
2023-01-10T23:58:01.460Z,100.00
